Terminal Aerodrome Forecast
Issued by NWS

Home | Current Version | Previous Version | Graphics & Text | Print | Product List | Glossary On
Versions: 1 2 3 4 5 6 7 8 9 10 11 12 13 14 15
953
FTUS41 KCLE 211133 CCA
TAFFDY
TAF COR
KFDY 211133Z 2112/2212 35004KT 6SM BR BKN080
      TEMPO 2112/2113 3SM BR
     FM211300 02005KT P6SM OVC045
     FM211800 04005KT P6SM FEW045 SCT150
     FM220300 12004KT P6SM FEW200
     FM220700 17005KT P6SM -SHRA VCTS BKN090CB=

USA.gov is the U.S. government's official web portal to all federal, state and local government web resources and services.